sensor_id;sensor_type;location;lat;lon;timestamp;P1;durP1;ratioP1;P2;durP2;ratioP2
68247;SDS011;55064;49.636;12.164;2022-08-21T00:00:11;19.50;;;11.00;;
68247;SDS011;55064;49.636;12.164;2022-08-21T00:02:44;18.67;;;10.57;;
68247;SDS011;55064;49.636;12.164;2022-08-21T00:05:16;18.55;;;10.75;;
68247;SDS011;55064;49.636;12.164;2022-08-21T00:07:44;16.90;;;10.48;;
68247;SDS011;55064;49.636;12.164;2022-08-21T00:10:10;16.30;;;10.00;;
68247;SDS011;55064;49.636;12.164;2022-08-21T00:12:41;16.67;;;10.67;;
68247;SDS011;55064;49.636;12.164;2022-08-21T00:15:10;17.17;;;10.48;;
68247;SDS011;55064;49.636;12.164;2022-08-21T00:17:40;16.33;;;9.77;;
68247;SDS011;55064;49.636;12.164;2022-08-21T00:20:09;17.77;;;10.98;;
68247;SDS011;55064;49.636;12.164;2022-08-21T00:22:36;17.97;;;10.30;;
68247;SDS011;55064;49.636;12.164;2022-08-21T00:25:03;18.45;;;11.15;;
68247;SDS011;55064;49.636;12.164;2022-08-21T00:27:30;19.92;;;11.40;;
68247;SDS011;55064;49.636;12.164;2022-08-21T00:29:58;16.40;;;10.10;;
68247;SDS011;55064;49.636;12.164;2022-08-21T00:32:25;16.65;;;10.35;;
68247;SDS011;55064;49.636;12.164;2022-08-21T00:34:51;15.77;;;9.82;;
68247;SDS011;55064;49.636;12.164;2022-08-21T00:37:17;15.23;;;9.17;;
68247;SDS011;55064;49.636;12.164;2022-08-21T00:39:42;16.50;;;9.93;;
68247;SDS011;55064;49.636;12.164;2022-08-21T00:42:08;16.40;;;9.27;;
68247;SDS011;55064;49.636;12.164;2022-08-21T00:44:39;17.48;;;9.93;;
68247;SDS011;55064;49.636;12.164;2022-08-21T00:47:06;15.18;;;9.23;;
68247;SDS011;55064;49.636;12.164;2022-08-21T00:49:31;17.37;;;10.17;;
68247;SDS011;55064;49.636;12.164;2022-08-21T00:51:57;19.10;;;10.00;;
68247;SDS011;55064;49.636;12.164;2022-08-21T00:54:26;16.85;;;10.00;;
68247;SDS011;55064;49.636;12.164;2022-08-21T00:56:56;16.60;;;9.30;;
68247;SDS011;55064;49.636;12.164;2022-08-21T00:59:29;16.30;;;9.20;;
68247;SDS011;55064;49.636;12.164;2022-08-21T01:02:01;14.60;;;8.33;;
68247;SDS011;55064;49.636;12.164;2022-08-21T01:04:31;15.02;;;8.73;;
68247;SDS011;55064;49.636;12.164;2022-08-21T01:06:56;16.38;;;8.90;;
68247;SDS011;55064;49.636;12.164;2022-08-21T01:09:26;14.15;;;8.82;;
68247;SDS011;55064;49.636;12.164;2022-08-21T01:11:54;15.02;;;7.95;;
68247;SDS011;55064;49.636;12.164;2022-08-21T01:14:25;17.73;;;9.30;;
68247;SDS011;55064;49.636;12.164;2022-08-21T01:16:55;17.83;;;9.70;;
68247;SDS011;55064;49.636;12.164;2022-08-21T01:19:23;17.17;;;8.77;;
68247;SDS011;55064;49.636;12.164;2022-08-21T01:21:52;16.83;;;8.98;;
68247;SDS011;55064;49.636;12.164;2022-08-21T01:24:21;15.43;;;8.93;;
68247;SDS011;55064;49.636;12.164;2022-08-21T01:26:47;14.73;;;8.30;;
68247;SDS011;55064;49.636;12.164;2022-08-21T01:29:30;17.63;;;8.73;;
68247;SDS011;55064;49.636;12.164;2022-08-21T01:32:04;15.55;;;8.82;;
68247;SDS011;55064;49.636;12.164;2022-08-21T01:34:33;15.82;;;8.25;;
68247;SDS011;55064;49.636;12.164;2022-08-21T01:37:03;18.35;;;9.60;;
68247;SDS011;55064;49.636;12.164;2022-08-21T01:39:32;18.13;;;9.30;;
68247;SDS011;55064;49.636;12.164;2022-08-21T01:42:01;22.38;;;9.93;;
68247;SDS011;55064;49.636;12.164;2022-08-21T01:44:29;19.92;;;10.48;;
68247;SDS011;55064;49.636;12.164;2022-08-21T01:46:54;22.47;;;11.17;;
68247;SDS011;55064;49.636;12.164;2022-08-21T01:49:20;27.73;;;12.85;;
68247;SDS011;55064;49.636;12.164;2022-08-21T01:51:46;27.43;;;13.67;;
68247;SDS011;55064;49.636;12.164;2022-08-21T01:54:11;27.70;;;13.75;;
68247;SDS011;55064;49.636;12.164;2022-08-21T01:56:40;26.60;;;13.07;;
68247;SDS011;55064;49.636;12.164;2022-08-21T01:59:07;31.65;;;14.15;;
68247;SDS011;55064;49.636;12.164;2022-08-21T02:01:36;27.47;;;14.13;;
68247;SDS011;55064;49.636;12.164;2022-08-21T02:04:04;28.88;;;14.95;;
68247;SDS011;55064;49.636;12.164;2022-08-21T02:06:32;27.75;;;14.05;;
68247;SDS011;55064;49.636;12.164;2022-08-21T02:08:59;29.13;;;14.82;;
68247;SDS011;55064;49.636;12.164;2022-08-21T02:11:27;27.17;;;14.43;;
68247;SDS011;55064;49.636;12.164;2022-08-21T02:13:53;30.23;;;15.60;;
68247;SDS011;55064;49.636;12.164;2022-08-21T02:16:18;29.23;;;15.93;;
68247;SDS011;55064;49.636;12.164;2022-08-21T02:18:43;31.58;;;15.90;;
68247;SDS011;55064;49.636;12.164;2022-08-21T02:21:09;31.20;;;15.67;;
68247;SDS011;55064;49.636;12.164;2022-08-21T02:23:34;29.60;;;15.97;;
68247;SDS011;55064;49.636;12.164;2022-08-21T02:26:01;34.75;;;16.08;;
68247;SDS011;55064;49.636;12.164;2022-08-21T02:28:32;33.72;;;16.75;;
68247;SDS011;55064;49.636;12.164;2022-08-21T02:31:00;30.43;;;15.67;;
68247;SDS011;55064;49.636;12.164;2022-08-21T02:33:29;31.40;;;17.02;;
68247;SDS011;55064;49.636;12.164;2022-08-21T02:35:54;30.67;;;15.90;;
68247;SDS011;55064;49.636;12.164;2022-08-21T02:38:28;29.65;;;15.60;;
68247;SDS011;55064;49.636;12.164;2022-08-21T02:40:58;29.70;;;16.02;;
68247;SDS011;55064;49.636;12.164;2022-08-21T02:43:24;30.73;;;15.73;;
68247;SDS011;55064;49.636;12.164;2022-08-21T02:45:55;33.35;;;16.45;;
68247;SDS011;55064;49.636;12.164;2022-08-21T02:48:22;32.03;;;15.95;;
68247;SDS011;55064;49.636;12.164;2022-08-21T02:50:54;30.42;;;16.17;;
68247;SDS011;55064;49.636;12.164;2022-08-21T02:53:43;33.23;;;15.97;;
68247;SDS011;55064;49.636;12.164;2022-08-21T02:56:09;32.83;;;15.98;;
68247;SDS011;55064;49.636;12.164;2022-08-21T02:58:38;31.67;;;16.95;;
68247;SDS011;55064;49.636;12.164;2022-08-21T03:01:08;31.35;;;15.63;;
68247;SDS011;55064;49.636;12.164;2022-08-21T03:03:34;32.53;;;15.97;;
68247;SDS011;55064;49.636;12.164;2022-08-21T03:06:04;35.60;;;17.17;;
68247;SDS011;55064;49.636;12.164;2022-08-21T03:08:32;34.17;;;17.67;;
68247;SDS011;55064;49.636;12.164;2022-08-21T03:10:57;34.15;;;16.88;;
68247;SDS011;55064;49.636;12.164;2022-08-21T03:13:25;35.22;;;16.63;;
68247;SDS011;55064;49.636;12.164;2022-08-21T03:15:51;36.50;;;18.00;;
68247;SDS011;55064;49.636;12.164;2022-08-21T03:18:17;36.63;;;17.63;;
68247;SDS011;55064;49.636;12.164;2022-08-21T03:20:43;37.33;;;18.23;;
68247;SDS011;55064;49.636;12.164;2022-08-21T03:23:10;37.50;;;18.15;;
68247;SDS011;55064;49.636;12.164;2022-08-21T03:25:36;34.43;;;17.23;;
68247;SDS011;55064;49.636;12.164;2022-08-21T03:28:05;35.80;;;17.70;;
68247;SDS011;55064;49.636;12.164;2022-08-21T03:30:35;35.15;;;16.70;;
68247;SDS011;55064;49.636;12.164;2022-08-21T03:33:03;34.65;;;17.45;;
68247;SDS011;55064;49.636;12.164;2022-08-21T03:35:29;32.87;;;16.83;;
68247;SDS011;55064;49.636;12.164;2022-08-21T03:37:54;30.42;;;16.65;;
68247;SDS011;55064;49.636;12.164;2022-08-21T03:40:21;33.23;;;17.07;;
68247;SDS011;55064;49.636;12.164;2022-08-21T03:42:47;32.20;;;18.20;;
68247;SDS011;55064;49.636;12.164;2022-08-21T03:45:14;32.70;;;16.05;;
68247;SDS011;55064;49.636;12.164;2022-08-21T03:48:00;30.67;;;16.77;;
68247;SDS011;55064;49.636;12.164;2022-08-21T03:50:30;32.88;;;17.55;;
68247;SDS011;55064;49.636;12.164;2022-08-21T03:52:57;30.50;;;15.35;;
68247;SDS011;55064;49.636;12.164;2022-08-21T03:55:26;32.38;;;17.83;;
68247;SDS011;55064;49.636;12.164;2022-08-21T03:57:52;32.17;;;17.00;;
68247;SDS011;55064;49.636;12.164;2022-08-21T04:00:23;31.53;;;16.33;;
68247;SDS011;55064;49.636;12.164;2022-08-21T04:02:51;31.48;;;17.25;;
68247;SDS011;55064;49.636;12.164;2022-08-21T04:05:17;35.08;;;17.48;;
68247;SDS011;55064;49.636;12.164;2022-08-21T04:07:55;31.77;;;16.92;;
68247;SDS011;55064;49.636;12.164;2022-08-21T04:10:26;31.02;;;17.20;;
68247;SDS011;55064;49.636;12.164;2022-08-21T04:12:56;31.23;;;16.50;;
68247;SDS011;55064;49.636;12.164;2022-08-21T04:15:24;33.45;;;16.95;;
68247;SDS011;55064;49.636;12.164;2022-08-21T04:17:50;32.65;;;16.98;;
68247;SDS011;55064;49.636;12.164;2022-08-21T04:20:19;35.40;;;16.97;;
68247;SDS011;55064;49.636;12.164;2022-08-21T04:22:46;34.92;;;16.48;;
68247;SDS011;55064;49.636;12.164;2022-08-21T04:25:13;32.25;;;16.95;;
68247;SDS011;55064;49.636;12.164;2022-08-21T04:27:44;30.42;;;16.00;;
68247;SDS011;55064;49.636;12.164;2022-08-21T04:30:13;30.90;;;16.27;;
68247;SDS011;55064;49.636;12.164;2022-08-21T04:32:45;30.95;;;16.33;;
68247;SDS011;55064;49.636;12.164;2022-08-21T04:35:13;29.45;;;15.45;;
68247;SDS011;55064;49.636;12.164;2022-08-21T04:37:45;33.45;;;16.75;;
68247;SDS011;55064;49.636;12.164;2022-08-21T04:40:11;34.75;;;17.23;;
68247;SDS011;55064;49.636;12.164;2022-08-21T04:42:45;32.23;;;17.07;;
68247;SDS011;55064;49.636;12.164;2022-08-21T04:45:19;29.73;;;15.98;;
68247;SDS011;55064;49.636;12.164;2022-08-21T04:47:53;30.88;;;16.88;;
68247;SDS011;55064;49.636;12.164;2022-08-21T04:50:22;30.83;;;15.35;;
68247;SDS011;55064;49.636;12.164;2022-08-21T04:52:52;28.63;;;15.75;;
68247;SDS011;55064;49.636;12.164;2022-08-21T04:55:18;32.50;;;16.70;;
68247;SDS011;55064;49.636;12.164;2022-08-21T04:57:48;31.67;;;16.35;;
68247;SDS011;55064;49.636;12.164;2022-08-21T05:00:20;32.00;;;17.20;;
68247;SDS011;55064;49.636;12.164;2022-08-21T05:02:51;31.20;;;17.45;;
68247;SDS011;55064;49.636;12.164;2022-08-21T05:05:21;31.75;;;17.15;;
68247;SDS011;55064;49.636;12.164;2022-08-21T05:07:46;30.07;;;16.30;;
68247;SDS011;55064;49.636;12.164;2022-08-21T05:10:12;29.60;;;16.03;;
68247;SDS011;55064;49.636;12.164;2022-08-21T05:12:39;30.45;;;16.27;;
68247;SDS011;55064;49.636;12.164;2022-08-21T05:15:06;31.55;;;16.60;;
68247;SDS011;55064;49.636;12.164;2022-08-21T05:17:35;30.38;;;16.23;;
68247;SDS011;55064;49.636;12.164;2022-08-21T05:20:00;32.00;;;16.45;;
68247;SDS011;55064;49.636;12.164;2022-08-21T05:22:27;30.23;;;16.40;;
68247;SDS011;55064;49.636;12.164;2022-08-21T05:24:53;31.92;;;16.90;;
68247;SDS011;55064;49.636;12.164;2022-08-21T05:27:21;32.63;;;17.47;;
68247;SDS011;55064;49.636;12.164;2022-08-21T05:29:46;31.35;;;16.25;;
68247;SDS011;55064;49.636;12.164;2022-08-21T05:32:12;31.10;;;17.00;;
68247;SDS011;55064;49.636;12.164;2022-08-21T05:34:38;31.33;;;17.23;;
68247;SDS011;55064;49.636;12.164;2022-08-21T05:37:04;30.65;;;16.17;;
68247;SDS011;55064;49.636;12.164;2022-08-21T05:39:30;29.93;;;15.50;;
68247;SDS011;55064;49.636;12.164;2022-08-21T05:41:55;29.33;;;15.77;;
68247;SDS011;55064;49.636;12.164;2022-08-21T05:44:23;34.22;;;17.42;;
68247;SDS011;55064;49.636;12.164;2022-08-21T05:46:48;31.20;;;16.50;;
68247;SDS011;55064;49.636;12.164;2022-08-21T05:49:14;28.77;;;16.30;;
68247;SDS011;55064;49.636;12.164;2022-08-21T05:51:40;27.75;;;15.48;;
68247;SDS011;55064;49.636;12.164;2022-08-21T05:54:10;26.93;;;15.43;;
68247;SDS011;55064;49.636;12.164;2022-08-21T05:56:36;27.92;;;15.00;;
68247;SDS011;55064;49.636;12.164;2022-08-21T05:59:04;29.45;;;16.25;;
68247;SDS011;55064;49.636;12.164;2022-08-21T06:01:32;28.77;;;15.90;;
68247;SDS011;55064;49.636;12.164;2022-08-21T06:04:00;29.55;;;16.70;;
68247;SDS011;55064;49.636;12.164;2022-08-21T06:06:28;26.23;;;15.73;;
68247;SDS011;55064;49.636;12.164;2022-08-21T06:08:56;27.77;;;15.57;;
68247;SDS011;55064;49.636;12.164;2022-08-21T06:11:21;29.50;;;17.05;;
68247;SDS011;55064;49.636;12.164;2022-08-21T06:13:49;26.17;;;15.25;;
68247;SDS011;55064;49.636;12.164;2022-08-21T06:16:18;30.00;;;16.90;;
68247;SDS011;55064;49.636;12.164;2022-08-21T06:18:46;29.23;;;16.50;;
68247;SDS011;55064;49.636;12.164;2022-08-21T06:21:11;30.48;;;16.45;;
68247;SDS011;55064;49.636;12.164;2022-08-21T06:23:38;29.43;;;16.17;;
68247;SDS011;55064;49.636;12.164;2022-08-21T06:26:05;28.25;;;16.88;;
68247;SDS011;55064;49.636;12.164;2022-08-21T06:28:34;28.42;;;16.23;;
68247;SDS011;55064;49.636;12.164;2022-08-21T06:31:09;27.10;;;16.38;;
68247;SDS011;55064;49.636;12.164;2022-08-21T06:33:36;28.58;;;17.13;;
68247;SDS011;55064;49.636;12.164;2022-08-21T06:36:04;27.57;;;15.97;;
68247;SDS011;55064;49.636;12.164;2022-08-21T06:38:32;28.75;;;16.30;;
68247;SDS011;55064;49.636;12.164;2022-08-21T06:40:57;27.60;;;15.97;;
68247;SDS011;55064;49.636;12.164;2022-08-21T06:43:22;27.50;;;15.75;;
68247;SDS011;55064;49.636;12.164;2022-08-21T06:45:50;27.23;;;15.87;;
68247;SDS011;55064;49.636;12.164;2022-08-21T06:48:18;28.67;;;16.65;;
68247;SDS011;55064;49.636;12.164;2022-08-21T06:50:44;28.77;;;16.60;;
68247;SDS011;55064;49.636;12.164;2022-08-21T06:53:12;27.83;;;15.13;;
68247;SDS011;55064;49.636;12.164;2022-08-21T06:55:44;27.08;;;15.32;;
68247;SDS011;55064;49.636;12.164;2022-08-21T06:58:10;26.60;;;15.13;;
68247;SDS011;55064;49.636;12.164;2022-08-21T07:00:39;27.03;;;16.07;;
68247;SDS011;55064;49.636;12.164;2022-08-21T07:03:15;26.77;;;15.60;;
68247;SDS011;55064;49.636;12.164;2022-08-21T07:05:45;27.35;;;15.63;;
68247;SDS011;55064;49.636;12.164;2022-08-21T07:08:10;27.37;;;15.27;;
68247;SDS011;55064;49.636;12.164;2022-08-21T07:10:38;23.97;;;14.70;;
68247;SDS011;55064;49.636;12.164;2022-08-21T07:13:04;27.02;;;15.77;;
68247;SDS011;55064;49.636;12.164;2022-08-21T07:15:30;26.73;;;14.75;;
68247;SDS011;55064;49.636;12.164;2022-08-21T07:17:55;24.63;;;15.43;;
68247;SDS011;55064;49.636;12.164;2022-08-21T07:20:21;24.98;;;15.02;;
68247;SDS011;55064;49.636;12.164;2022-08-21T07:22:47;25.10;;;14.77;;
68247;SDS011;55064;49.636;12.164;2022-08-21T07:25:13;24.40;;;14.50;;
68247;SDS011;55064;49.636;12.164;2022-08-21T07:27:38;23.00;;;14.97;;
68247;SDS011;55064;49.636;12.164;2022-08-21T07:30:04;23.27;;;14.80;;
68247;SDS011;55064;49.636;12.164;2022-08-21T07:32:33;24.27;;;14.13;;
68247;SDS011;55064;49.636;12.164;2022-08-21T07:35:01;24.92;;;14.98;;
68247;SDS011;55064;49.636;12.164;2022-08-21T07:37:27;24.55;;;14.93;;
68247;SDS011;55064;49.636;12.164;2022-08-21T07:39:53;26.13;;;14.60;;
68247;SDS011;55064;49.636;12.164;2022-08-21T07:42:18;23.27;;;14.25;;
68247;SDS011;55064;49.636;12.164;2022-08-21T07:44:44;22.80;;;13.70;;
68247;SDS011;55064;49.636;12.164;2022-08-21T07:47:09;23.43;;;13.50;;
68247;SDS011;55064;49.636;12.164;2022-08-21T07:49:35;21.43;;;13.13;;
68247;SDS011;55064;49.636;12.164;2022-08-21T07:52:00;23.13;;;13.45;;
68247;SDS011;55064;49.636;12.164;2022-08-21T07:54:26;21.37;;;12.93;;
68247;SDS011;55064;49.636;12.164;2022-08-21T07:56:52;20.70;;;12.50;;
68247;SDS011;55064;49.636;12.164;2022-08-21T07:59:17;20.03;;;13.10;;
68247;SDS011;55064;49.636;12.164;2022-08-21T08:01:43;21.53;;;12.90;;
68247;SDS011;55064;49.636;12.164;2022-08-21T08:04:10;22.50;;;13.23;;
68247;SDS011;55064;49.636;12.164;2022-08-21T08:06:36;20.88;;;13.32;;
68247;SDS011;55064;49.636;12.164;2022-08-21T08:09:01;21.47;;;13.33;;
68247;SDS011;55064;49.636;12.164;2022-08-21T08:11:29;21.33;;;12.77;;
68247;SDS011;55064;49.636;12.164;2022-08-21T08:13:54;20.40;;;12.90;;
68247;SDS011;55064;49.636;12.164;2022-08-21T08:16:22;19.30;;;12.20;;
68247;SDS011;55064;49.636;12.164;2022-08-21T08:18:50;19.35;;;11.85;;
68247;SDS011;55064;49.636;12.164;2022-08-21T08:21:18;20.65;;;12.70;;
68247;SDS011;55064;49.636;12.164;2022-08-21T08:23:48;19.23;;;12.02;;
68247;SDS011;55064;49.636;12.164;2022-08-21T08:26:14;22.77;;;15.67;;
68247;SDS011;55064;49.636;12.164;2022-08-21T08:28:45;22.58;;;13.75;;
68247;SDS011;55064;49.636;12.164;2022-08-21T08:31:12;18.60;;;11.82;;
68247;SDS011;55064;49.636;12.164;2022-08-21T08:33:40;18.13;;;11.27;;
68247;SDS011;55064;49.636;12.164;2022-08-21T08:36:17;16.88;;;11.23;;
68247;SDS011;55064;49.636;12.164;2022-08-21T08:38:42;17.87;;;11.30;;
68247;SDS011;55064;49.636;12.164;2022-08-21T08:43:44;17.70;;;10.73;;
68247;SDS011;55064;49.636;12.164;2022-08-21T08:46:18;19.63;;;11.93;;
68247;SDS011;55064;49.636;12.164;2022-08-21T08:57:09;18.17;;;11.20;;
68247;SDS011;55064;49.636;12.164;2022-08-21T08:59:45;16.10;;;10.35;;
68247;SDS011;55064;49.636;12.164;2022-08-21T09:02:17;15.48;;;10.75;;
68247;SDS011;55064;49.636;12.164;2022-08-21T09:04:46;16.67;;;10.03;;
68247;SDS011;55064;49.636;12.164;2022-08-21T09:07:16;16.50;;;11.13;;
68247;SDS011;55064;49.636;12.164;2022-08-21T09:09:55;17.70;;;10.50;;
68247;SDS011;55064;49.636;12.164;2022-08-21T09:12:32;15.75;;;10.00;;
68247;SDS011;55064;49.636;12.164;2022-08-21T09:15:22;15.40;;;9.77;;
68247;SDS011;55064;49.636;12.164;2022-08-21T09:28:42;14.98;;;9.63;;
68247;SDS011;55064;49.636;12.164;2022-08-21T09:31:16;15.30;;;9.33;;
68247;SDS011;55064;49.636;12.164;2022-08-21T09:33:50;13.27;;;9.27;;
68247;SDS011;55064;49.636;12.164;2022-08-21T09:36:37;13.32;;;8.80;;
68247;SDS011;55064;49.636;12.164;2022-08-21T09:39:05;16.25;;;9.32;;
68247;SDS011;55064;49.636;12.164;2022-08-21T09:41:36;15.00;;;9.90;;
68247;SDS011;55064;49.636;12.164;2022-08-21T09:44:05;14.73;;;10.10;;
68247;SDS011;55064;49.636;12.164;2022-08-21T09:46:33;15.48;;;10.00;;
68247;SDS011;55064;49.636;12.164;2022-08-21T09:49:02;14.32;;;10.63;;
68247;SDS011;55064;49.636;12.164;2022-08-21T09:51:32;15.13;;;9.90;;
68247;SDS011;55064;49.636;12.164;2022-08-21T09:56:31;13.38;;;9.13;;
68247;SDS011;55064;49.636;12.164;2022-08-21T09:59:32;13.02;;;8.70;;
68247;SDS011;55064;49.636;12.164;2022-08-21T10:02:00;13.85;;;9.60;;
68247;SDS011;55064;49.636;12.164;2022-08-21T10:04:48;13.38;;;9.52;;
68247;SDS011;55064;49.636;12.164;2022-08-21T10:07:22;12.70;;;8.40;;
68247;SDS011;55064;49.636;12.164;2022-08-21T10:10:03;12.32;;;8.40;;
68247;SDS011;55064;49.636;12.164;2022-08-21T10:17:51;13.52;;;9.07;;
68247;SDS011;55064;49.636;12.164;2022-08-21T10:21:04;10.83;;;7.50;;
68247;SDS011;55064;49.636;12.164;2022-08-21T10:23:21;11.32;;;8.20;;
68247;SDS011;55064;49.636;12.164;2022-08-21T10:40:47;11.45;;;8.48;;
68247;SDS011;55064;49.636;12.164;2022-08-21T10:53:42;12.20;;;8.27;;
68247;SDS011;55064;49.636;12.164;2022-08-21T10:56:20;11.65;;;7.78;;
68247;SDS011;55064;49.636;12.164;2022-08-21T11:05:10;12.70;;;8.20;;
68247;SDS011;55064;49.636;12.164;2022-08-21T11:07:49;11.43;;;7.50;;
68247;SDS011;55064;49.636;12.164;2022-08-21T11:21:36;10.95;;;7.35;;
68247;SDS011;55064;49.636;12.164;2022-08-21T11:29:54;9.27;;;6.73;;
68247;SDS011;55064;49.636;12.164;2022-08-21T11:32:36;10.00;;;6.93;;
68247;SDS011;55064;49.636;12.164;2022-08-21T11:38:15;10.98;;;6.93;;
68247;SDS011;55064;49.636;12.164;2022-08-21T11:43:47;10.20;;;6.77;;
68247;SDS011;55064;49.636;12.164;2022-08-21T11:46:36;9.77;;;6.93;;
68247;SDS011;55064;49.636;12.164;2022-08-21T11:57:29;10.00;;;6.80;;
68247;SDS011;55064;49.636;12.164;2022-08-21T12:02:53;10.00;;;6.78;;
68247;SDS011;55064;49.636;12.164;2022-08-21T12:05:25;9.32;;;6.72;;
68247;SDS011;55064;49.636;12.164;2022-08-21T12:08:00;11.30;;;6.90;;
68247;SDS011;55064;49.636;12.164;2022-08-21T12:10:45;9.90;;;6.20;;
68247;SDS011;55064;49.636;12.164;2022-08-21T12:13:29;9.45;;;6.10;;
68247;SDS011;55064;49.636;12.164;2022-08-21T12:16:09;9.07;;;6.43;;
68247;SDS011;55064;49.636;12.164;2022-08-21T12:18:39;9.68;;;6.40;;
68247;SDS011;55064;49.636;12.164;2022-08-21T12:23:47;9.17;;;6.10;;
68247;SDS011;55064;49.636;12.164;2022-08-21T12:32:00;9.70;;;5.80;;
68247;SDS011;55064;49.636;12.164;2022-08-21T12:40:22;9.40;;;5.40;;
68247;SDS011;55064;49.636;12.164;2022-08-21T12:42:56;8.20;;;5.80;;
68247;SDS011;55064;49.636;12.164;2022-08-21T12:47:57;8.30;;;5.72;;
68247;SDS011;55064;49.636;12.164;2022-08-21T12:50:33;10.40;;;6.07;;
68247;SDS011;55064;49.636;12.164;2022-08-21T12:53:03;9.23;;;5.60;;
68247;SDS011;55064;49.636;12.164;2022-08-21T12:55:34;12.65;;;5.60;;
68247;SDS011;55064;49.636;12.164;2022-08-21T12:58:15;8.30;;;5.53;;
68247;SDS011;55064;49.636;12.164;2022-08-21T13:00:44;13.13;;;5.90;;
68247;SDS011;55064;49.636;12.164;2022-08-21T13:03:15;13.40;;;6.47;;
68247;SDS011;55064;49.636;12.164;2022-08-21T13:05:43;11.27;;;5.65;;
68247;SDS011;55064;49.636;12.164;2022-08-21T13:08:12;9.82;;;5.85;;
68247;SDS011;55064;49.636;12.164;2022-08-21T13:10:39;9.10;;;5.85;;
68247;SDS011;55064;49.636;12.164;2022-08-21T13:13:31;8.95;;;5.22;;
68247;SDS011;55064;49.636;12.164;2022-08-21T13:15:59;8.17;;;5.23;;
68247;SDS011;55064;49.636;12.164;2022-08-21T13:18:33;9.50;;;6.25;;
68247;SDS011;55064;49.636;12.164;2022-08-21T13:21:07;8.40;;;5.50;;
68247;SDS011;55064;49.636;12.164;2022-08-21T13:23:36;9.82;;;5.30;;
68247;SDS011;55064;49.636;12.164;2022-08-21T13:26:14;8.27;;;5.53;;
68247;SDS011;55064;49.636;12.164;2022-08-21T13:28:43;8.50;;;5.50;;
68247;SDS011;55064;49.636;12.164;2022-08-21T13:31:12;8.48;;;5.20;;
68247;SDS011;55064;49.636;12.164;2022-08-21T13:33:41;9.68;;;5.15;;
68247;SDS011;55064;49.636;12.164;2022-08-21T13:36:10;7.93;;;4.60;;
68247;SDS011;55064;49.636;12.164;2022-08-21T13:38:44;8.30;;;5.25;;
68247;SDS011;55064;49.636;12.164;2022-08-21T13:43:44;9.93;;;5.10;;
68247;SDS011;55064;49.636;12.164;2022-08-21T13:46:15;9.05;;;5.13;;
68247;SDS011;55064;49.636;12.164;2022-08-21T13:48:48;7.80;;;4.70;;
68247;SDS011;55064;49.636;12.164;2022-08-21T13:51:16;9.98;;;5.00;;
68247;SDS011;55064;49.636;12.164;2022-08-21T13:56:10;7.80;;;5.00;;
68247;SDS011;55064;49.636;12.164;2022-08-21T13:58:51;8.65;;;4.82;;
68247;SDS011;55064;49.636;12.164;2022-08-21T14:01:30;7.83;;;4.73;;
68247;SDS011;55064;49.636;12.164;2022-08-21T14:04:05;7.80;;;4.70;;
68247;SDS011;55064;49.636;12.164;2022-08-21T14:06:46;7.68;;;4.65;;
68247;SDS011;55064;49.636;12.164;2022-08-21T14:11:51;7.35;;;4.80;;
68247;SDS011;55064;49.636;12.164;2022-08-21T14:14:20;6.40;;;4.13;;
68247;SDS011;55064;49.636;12.164;2022-08-21T14:17:08;7.60;;;4.88;;
68247;SDS011;55064;49.636;12.164;2022-08-21T14:22:22;7.93;;;4.90;;
68247;SDS011;55064;49.636;12.164;2022-08-21T14:25:01;7.80;;;5.15;;
68247;SDS011;55064;49.636;12.164;2022-08-21T14:27:33;9.07;;;5.30;;
68247;SDS011;55064;49.636;12.164;2022-08-21T14:30:01;11.48;;;5.22;;
68247;SDS011;55064;49.636;12.164;2022-08-21T14:32:39;8.55;;;4.72;;
68247;SDS011;55064;49.636;12.164;2022-08-21T14:35:09;7.70;;;4.97;;
68247;SDS011;55064;49.636;12.164;2022-08-21T14:37:35;7.32;;;4.50;;
68247;SDS011;55064;49.636;12.164;2022-08-21T14:40:03;8.03;;;4.27;;
68247;SDS011;55064;49.636;12.164;2022-08-21T14:42:32;7.95;;;3.97;;
68247;SDS011;55064;49.636;12.164;2022-08-21T14:45:01;7.18;;;4.65;;
68247;SDS011;55064;49.636;12.164;2022-08-21T14:47:36;7.40;;;4.50;;
68247;SDS011;55064;49.636;12.164;2022-08-21T14:50:06;6.50;;;4.13;;
68247;SDS011;55064;49.636;12.164;2022-08-21T14:52:31;7.63;;;4.30;;
68247;SDS011;55064;49.636;12.164;2022-08-21T14:54:59;9.05;;;4.70;;
68247;SDS011;55064;49.636;12.164;2022-08-21T14:57:25;8.43;;;4.17;;
68247;SDS011;55064;49.636;12.164;2022-08-21T14:59:57;6.53;;;4.10;;
68247;SDS011;55064;49.636;12.164;2022-08-21T15:02:25;6.20;;;3.88;;
68247;SDS011;55064;49.636;12.164;2022-08-21T15:04:56;7.63;;;4.07;;
68247;SDS011;55064;49.636;12.164;2022-08-21T15:07:21;9.17;;;3.80;;
68247;SDS011;55064;49.636;12.164;2022-08-21T15:09:49;10.90;;;4.07;;
68247;SDS011;55064;49.636;12.164;2022-08-21T15:12:15;12.02;;;4.60;;
68247;SDS011;55064;49.636;12.164;2022-08-21T15:14:42;7.35;;;4.32;;
68247;SDS011;55064;49.636;12.164;2022-08-21T15:17:08;8.17;;;4.40;;
68247;SDS011;55064;49.636;12.164;2022-08-21T15:19:37;7.67;;;4.80;;
68247;SDS011;55064;49.636;12.164;2022-08-21T15:22:06;7.82;;;4.68;;
68247;SDS011;55064;49.636;12.164;2022-08-21T15:24:31;8.15;;;4.72;;
68247;SDS011;55064;49.636;12.164;2022-08-21T15:27:00;7.93;;;4.70;;
68247;SDS011;55064;49.636;12.164;2022-08-21T15:29:28;6.90;;;4.50;;
68247;SDS011;55064;49.636;12.164;2022-08-21T15:31:56;7.13;;;3.97;;
68247;SDS011;55064;49.636;12.164;2022-08-21T15:34:27;8.32;;;3.83;;
68247;SDS011;55064;49.636;12.164;2022-08-21T15:36:56;6.70;;;3.90;;
68247;SDS011;55064;49.636;12.164;2022-08-21T15:39:25;7.05;;;4.30;;
68247;SDS011;55064;49.636;12.164;2022-08-21T15:41:57;7.22;;;4.30;;
68247;SDS011;55064;49.636;12.164;2022-08-21T15:44:27;6.90;;;4.32;;
68247;SDS011;55064;49.636;12.164;2022-08-21T15:46:54;7.03;;;4.30;;
68247;SDS011;55064;49.636;12.164;2022-08-21T15:49:20;6.20;;;3.70;;
68247;SDS011;55064;49.636;12.164;2022-08-21T15:51:46;7.28;;;4.03;;
68247;SDS011;55064;49.636;12.164;2022-08-21T15:54:13;7.47;;;3.97;;
68247;SDS011;55064;49.636;12.164;2022-08-21T15:56:44;7.07;;;4.17;;
68247;SDS011;55064;49.636;12.164;2022-08-21T15:59:17;6.50;;;4.00;;
68247;SDS011;55064;49.636;12.164;2022-08-21T16:01:49;7.25;;;3.95;;
68247;SDS011;55064;49.636;12.164;2022-08-21T16:04:23;7.28;;;3.95;;
68247;SDS011;55064;49.636;12.164;2022-08-21T16:06:52;6.38;;;3.83;;
68247;SDS011;55064;49.636;12.164;2022-08-21T16:09:18;6.43;;;4.20;;
68247;SDS011;55064;49.636;12.164;2022-08-21T16:11:46;6.57;;;4.00;;
68247;SDS011;55064;49.636;12.164;2022-08-21T16:14:15;7.53;;;4.43;;
68247;SDS011;55064;49.636;12.164;2022-08-21T16:16:41;7.88;;;4.20;;
68247;SDS011;55064;49.636;12.164;2022-08-21T16:19:07;7.10;;;4.10;;
68247;SDS011;55064;49.636;12.164;2022-08-21T16:21:33;6.83;;;4.27;;
68247;SDS011;55064;49.636;12.164;2022-08-21T16:24:05;6.97;;;4.32;;
68247;SDS011;55064;49.636;12.164;2022-08-21T16:26:30;7.50;;;4.22;;
68247;SDS011;55064;49.636;12.164;2022-08-21T16:28:56;7.93;;;4.37;;
68247;SDS011;55064;49.636;12.164;2022-08-21T16:31:27;7.05;;;3.95;;
68247;SDS011;55064;49.636;12.164;2022-08-21T16:33:53;6.22;;;4.03;;